sensor_id;sensor_type;location;lat;lon;timestamp;pressure;altitude;pressure_sealevel;temperature;humidity
68986;BME280;56035;37.534;-122.308;2023-04-07T00:57:48;101512.41;;;13.32;93.81
68986;BME280;56035;37.534;-122.308;2023-04-07T01:00:16;101504.94;;;13.09;95.90
68986;BME280;56035;37.534;-122.308;2023-04-07T01:02:50;101510.09;;;12.94;95.74
68986;BME280;56035;37.534;-122.308;2023-04-07T01:05:44;101518.78;;;12.86;97.94
68986;BME280;56035;37.534;-122.308;2023-04-07T01:10:50;101514.66;;;12.77;99.58
68986;BME280;56035;37.534;-122.308;2023-04-07T01:13:36;101531.59;;;12.69;100.00
68986;BME280;56035;37.534;-122.308;2023-04-07T01:16:06;101525.31;;;12.61;100.00
68986;BME280;56035;37.534;-122.308;2023-04-07T01:18:36;101523.03;;;12.47;100.00
68986;BME280;56035;37.534;-122.308;2023-04-07T01:21:10;101530.34;;;12.41;100.00
68986;BME280;56035;37.534;-122.308;2023-04-07T01:26:26;101520.50;;;12.15;100.00
68986;BME280;56035;37.534;-122.308;2023-04-07T01:31:57;101523.28;;;12.15;100.00
68986;BME280;56035;37.534;-122.308;2023-04-07T01:34:25;101516.00;;;12.02;100.00
68986;BME280;56035;37.534;-122.308;2023-04-07T01:36:53;101510.56;;;11.95;100.00
68986;BME280;56035;37.534;-122.308;2023-04-07T01:39:21;101512.75;;;11.93;100.00
68986;BME280;56035;37.534;-122.308;2023-04-07T01:41:47;101525.94;;;11.91;100.00
68986;BME280;56035;37.534;-122.308;2023-04-07T01:44:14;101525.09;;;11.91;100.00
68986;BME280;56035;37.534;-122.308;2023-04-07T01:46:40;101518.56;;;11.85;100.00
68986;BME280;56035;37.534;-122.308;2023-04-07T01:49:07;101518.00;;;11.77;100.00
68986;BME280;56035;37.534;-122.308;2023-04-07T01:51:33;101527.00;;;11.72;100.00
68986;BME280;56035;37.534;-122.308;2023-04-07T01:54:00;101522.56;;;11.71;100.00
68986;BME280;56035;37.534;-122.308;2023-04-07T01:56:26;101525.06;;;11.72;100.00
68986;BME280;56035;37.534;-122.308;2023-04-07T01:58:53;101523.22;;;11.66;100.00
68986;BME280;56035;37.534;-122.308;2023-04-07T02:01:19;101525.78;;;11.68;100.00
68986;BME280;56035;37.534;-122.308;2023-04-07T02:03:58;101522.78;;;11.69;100.00
68986;BME280;56035;37.534;-122.308;2023-04-07T02:06:34;101523.59;;;11.70;100.00
68986;BME280;56035;37.534;-122.308;2023-04-07T02:09:06;101515.41;;;11.63;100.00
68986;BME280;56035;37.534;-122.308;2023-04-07T02:11:36;101519.09;;;11.57;100.00
68986;BME280;56035;37.534;-122.308;2023-04-07T02:14:05;101508.06;;;11.57;100.00
68986;BME280;56035;37.534;-122.308;2023-04-07T02:16:34;101505.91;;;11.59;100.00
68986;BME280;56035;37.534;-122.308;2023-04-07T02:19:01;101496.19;;;11.57;100.00
68986;BME280;56035;37.534;-122.308;2023-04-07T02:21:29;101504.69;;;11.55;100.00
68986;BME280;56035;37.534;-122.308;2023-04-07T02:24:09;101503.00;;;11.54;100.00
68986;BME280;56035;37.534;-122.308;2023-04-07T02:26:36;101502.59;;;11.51;100.00
68986;BME280;56035;37.534;-122.308;2023-04-07T02:29:03;101493.97;;;11.47;100.00
68986;BME280;56035;37.534;-122.308;2023-04-07T02:31:29;101497.41;;;11.42;100.00
68986;BME280;56035;37.534;-122.308;2023-04-07T02:33:55;101495.94;;;11.40;100.00
68986;BME280;56035;37.534;-122.308;2023-04-07T02:36:22;101492.06;;;11.29;100.00
68986;BME280;56035;37.534;-122.308;2023-04-07T02:38:48;101493.97;;;11.29;100.00
68986;BME280;56035;37.534;-122.308;2023-04-07T02:41:14;101495.34;;;11.19;100.00
68986;BME280;56035;37.534;-122.308;2023-04-07T02:43:40;101491.13;;;11.17;100.00
68986;BME280;56035;37.534;-122.308;2023-04-07T02:46:06;101493.72;;;11.12;100.00
68986;BME280;56035;37.534;-122.308;2023-04-07T02:48:33;101492.47;;;11.08;100.00
68986;BME280;56035;37.534;-122.308;2023-04-07T02:50:59;101492.94;;;11.05;100.00
68986;BME280;56035;37.534;-122.308;2023-04-07T02:53:25;101493.25;;;10.96;100.00
68986;BME280;56035;37.534;-122.308;2023-04-07T02:55:51;101484.59;;;10.93;100.00
68986;BME280;56035;37.534;-122.308;2023-04-07T02:58:17;101481.19;;;10.91;100.00
68986;BME280;56035;37.534;-122.308;2023-04-07T03:00:44;101486.31;;;10.87;100.00
68986;BME280;56035;37.534;-122.308;2023-04-07T03:03:10;101481.50;;;10.83;100.00
68986;BME280;56035;37.534;-122.308;2023-04-07T03:05:36;101493.81;;;10.80;100.00
68986;BME280;56035;37.534;-122.308;2023-04-07T03:08:02;101498.69;;;10.78;100.00
68986;BME280;56035;37.534;-122.308;2023-04-07T03:10:28;101498.53;;;10.73;100.00
68986;BME280;56035;37.534;-122.308;2023-04-07T03:12:55;101498.38;;;10.68;100.00
68986;BME280;56035;37.534;-122.308;2023-04-07T03:15:22;101496.84;;;10.72;100.00
68986;BME280;56035;37.534;-122.308;2023-04-07T03:17:48;101496.06;;;10.65;100.00
68986;BME280;56035;37.534;-122.308;2023-04-07T03:20:14;101501.56;;;10.65;100.00
68986;BME280;56035;37.534;-122.308;2023-04-07T03:22:40;101501.41;;;10.60;100.00
68986;BME280;56035;37.534;-122.308;2023-04-07T03:25:07;101513.72;;;10.57;100.00
68986;BME280;56035;37.534;-122.308;2023-04-07T03:27:33;101522.19;;;10.55;100.00
68986;BME280;56035;37.534;-122.308;2023-04-07T03:29:59;101528.78;;;10.54;100.00
68986;BME280;56035;37.534;-122.308;2023-04-07T03:32:25;101525.63;;;10.51;100.00
68986;BME280;56035;37.534;-122.308;2023-04-07T03:34:51;101513.78;;;10.50;100.00
68986;BME280;56035;37.534;-122.308;2023-04-07T03:37:18;101518.06;;;10.46;100.00
68986;BME280;56035;37.534;-122.308;2023-04-07T03:39:44;101521.25;;;10.43;100.00
68986;BME280;56035;37.534;-122.308;2023-04-07T03:42:10;101529.97;;;10.40;100.00
68986;BME280;56035;37.534;-122.308;2023-04-07T03:44:36;101524.88;;;10.37;100.00
68986;BME280;56035;37.534;-122.308;2023-04-07T03:47:02;101529.56;;;10.37;100.00
68986;BME280;56035;37.534;-122.308;2023-04-07T03:49:49;101533.16;;;10.37;100.00
68986;BME280;56035;37.534;-122.308;2023-04-07T03:52:15;101535.50;;;10.34;100.00
68986;BME280;56035;37.534;-122.308;2023-04-07T03:54:41;101541.66;;;10.29;100.00
68986;BME280;56035;37.534;-122.308;2023-04-07T03:57:07;101534.47;;;10.28;100.00
68986;BME280;56035;37.534;-122.308;2023-04-07T03:59:34;101542.50;;;10.23;100.00
68986;BME280;56035;37.534;-122.308;2023-04-07T04:02:01;101547.41;;;10.21;100.00
68986;BME280;56035;37.534;-122.308;2023-04-07T04:04:27;101550.78;;;10.23;100.00
68986;BME280;56035;37.534;-122.308;2023-04-07T04:06:53;101549.50;;;10.25;100.00
68986;BME280;56035;37.534;-122.308;2023-04-07T04:09:19;101539.34;;;10.19;100.00
68986;BME280;56035;37.534;-122.308;2023-04-07T04:11:46;101545.09;;;10.18;100.00
68986;BME280;56035;37.534;-122.308;2023-04-07T04:14:12;101548.06;;;10.16;100.00
68986;BME280;56035;37.534;-122.308;2023-04-07T04:16:38;101550.22;;;10.14;100.00
68986;BME280;56035;37.534;-122.308;2023-04-07T04:19:04;101547.06;;;10.11;100.00
68986;BME280;56035;37.534;-122.308;2023-04-07T04:21:30;101551.03;;;10.15;100.00
68986;BME280;56035;37.534;-122.308;2023-04-07T04:23:57;101537.91;;;10.10;100.00
68986;BME280;56035;37.534;-122.308;2023-04-07T04:26:23;101539.84;;;10.09;100.00
68986;BME280;56035;37.534;-122.308;2023-04-07T04:28:51;101549.81;;;10.11;100.00
68986;BME280;56035;37.534;-122.308;2023-04-07T04:31:17;101543.22;;;10.12;100.00
68986;BME280;56035;37.534;-122.308;2023-04-07T04:33:43;101539.22;;;10.07;100.00
68986;BME280;56035;37.534;-122.308;2023-04-07T04:36:09;101541.56;;;10.04;100.00
68986;BME280;56035;37.534;-122.308;2023-04-07T04:38:36;101549.59;;;10.05;100.00
68986;BME280;56035;37.534;-122.308;2023-04-07T04:41:02;101557.91;;;9.99;100.00
68986;BME280;56035;37.534;-122.308;2023-04-07T04:43:28;101569.13;;;9.97;100.00
68986;BME280;56035;37.534;-122.308;2023-04-07T04:45:55;101572.31;;;9.94;100.00
68986;BME280;56035;37.534;-122.308;2023-04-07T04:48:21;101567.88;;;9.93;100.00
68986;BME280;56035;37.534;-122.308;2023-04-07T04:50:47;101570.00;;;9.91;100.00
68986;BME280;56035;37.534;-122.308;2023-04-07T04:53:14;101570.00;;;9.91;100.00
68986;BME280;56035;37.534;-122.308;2023-04-07T04:55:40;101563.88;;;9.89;100.00
68986;BME280;56035;37.534;-122.308;2023-04-07T04:58:11;101556.88;;;9.87;100.00
68986;BME280;56035;37.534;-122.308;2023-04-07T05:00:37;101565.75;;;9.95;100.00
68986;BME280;56035;37.534;-122.308;2023-04-07T05:03:16;101560.44;;;9.94;100.00
68986;BME280;56035;37.534;-122.308;2023-04-07T05:05:42;101560.88;;;9.97;100.00
68986;BME280;56035;37.534;-122.308;2023-04-07T05:08:10;101567.00;;;9.99;100.00
68986;BME280;56035;37.534;-122.308;2023-04-07T05:10:39;101564.03;;;10.01;100.00
68986;BME280;56035;37.534;-122.308;2023-04-07T05:13:25;101570.38;;;10.01;100.00
68986;BME280;56035;37.534;-122.308;2023-04-07T05:15:52;101575.88;;;10.01;100.00
68986;BME280;56035;37.534;-122.308;2023-04-07T05:18:18;101576.72;;;10.02;100.00
68986;BME280;56035;37.534;-122.308;2023-04-07T05:20:47;101580.97;;;10.04;100.00
68986;BME280;56035;37.534;-122.308;2023-04-07T05:23:13;101577.13;;;10.05;100.00
68986;BME280;56035;37.534;-122.308;2023-04-07T05:25:39;101580.97;;;10.04;100.00
68986;BME280;56035;37.534;-122.308;2023-04-07T05:28:06;101583.72;;;10.04;100.00
68986;BME280;56035;37.534;-122.308;2023-04-07T05:30:32;101584.31;;;10.06;100.00
68986;BME280;56035;37.534;-122.308;2023-04-07T05:32:58;101581.38;;;10.08;100.00
68986;BME280;56035;37.534;-122.308;2023-04-07T05:36:04;101586.44;;;10.11;100.00
68986;BME280;56035;37.534;-122.308;2023-04-07T05:38:31;101587.47;;;10.10;100.00
68986;BME280;56035;37.534;-122.308;2023-04-07T05:40:57;101590.03;;;10.12;100.00
68986;BME280;56035;37.534;-122.308;2023-04-07T05:43:23;101586.84;;;10.15;100.00
68986;BME280;56035;37.534;-122.308;2023-04-07T05:45:50;101587.91;;;10.14;100.00
68986;BME280;56035;37.534;-122.308;2023-04-07T05:48:16;101590.44;;;10.15;100.00
68986;BME280;56035;37.534;-122.308;2023-04-07T05:50:42;101585.56;;;10.17;100.00
68986;BME280;56035;37.534;-122.308;2023-04-07T05:53:08;101590.19;;;10.17;100.00
68986;BME280;56035;37.534;-122.308;2023-04-07T05:55:35;101586.41;;;10.18;100.00
68986;BME280;56035;37.534;-122.308;2023-04-07T05:58:01;101592.75;;;10.18;100.00
68986;BME280;56035;37.534;-122.308;2023-04-07T06:00:27;101579.81;;;10.19;100.00
68986;BME280;56035;37.534;-122.308;2023-04-07T06:02:53;101583.81;;;10.23;100.00
68986;BME280;56035;37.534;-122.308;2023-04-07T06:05:19;101578.75;;;10.20;100.00
68986;BME280;56035;37.534;-122.308;2023-04-07T06:07:45;101579.81;;;10.19;100.00
68986;BME280;56035;37.534;-122.308;2023-04-07T06:10:12;101577.50;;;10.16;100.00
68986;BME280;56035;37.534;-122.308;2023-04-07T06:12:38;101574.94;;;10.21;100.00
68986;BME280;56035;37.534;-122.308;2023-04-07T06:15:04;101563.25;;;10.25;100.00
68986;BME280;56035;37.534;-122.308;2023-04-07T06:17:31;101563.09;;;10.27;100.00
68986;BME280;56035;37.534;-122.308;2023-04-07T06:19:57;101558.41;;;10.27;100.00
68986;BME280;56035;37.534;-122.308;2023-04-07T06:22:23;101545.69;;;10.26;100.00
68986;BME280;56035;37.534;-122.308;2023-04-07T06:24:49;101555.44;;;10.29;100.00
68986;BME280;56035;37.534;-122.308;2023-04-07T06:27:15;101550.75;;;10.29;100.00
68986;BME280;56035;37.534;-122.308;2023-04-07T06:29:43;101544.41;;;10.29;100.00
68986;BME280;56035;37.534;-122.308;2023-04-07T06:32:09;101542.75;;;10.28;100.00
68986;BME280;56035;37.534;-122.308;2023-04-07T06:34:35;101533.78;;;10.32;100.00
68986;BME280;56035;37.534;-122.308;2023-04-07T06:37:01;101537.19;;;10.35;100.00
68986;BME280;56035;37.534;-122.308;2023-04-07T06:39:30;101539.53;;;10.31;100.00
68986;BME280;56035;37.534;-122.308;2023-04-07T06:41:56;101546.53;;;10.34;100.00
68986;BME280;56035;37.534;-122.308;2023-04-07T06:44:22;101538.47;;;10.32;100.00
68986;BME280;56035;37.534;-122.308;2023-04-07T06:46:48;101531.94;;;10.26;100.00
68986;BME280;56035;37.534;-122.308;2023-04-07T06:49:18;101535.13;;;10.30;100.00
68986;BME280;56035;37.534;-122.308;2023-04-07T06:51:44;101530.88;;;10.27;100.00
68986;BME280;56035;37.534;-122.308;2023-04-07T06:54:10;101525.78;;;10.24;100.00
68986;BME280;56035;37.534;-122.308;2023-04-07T06:56:41;101530.88;;;10.21;100.00
68986;BME280;56035;37.534;-122.308;2023-04-07T06:59:08;101528.34;;;10.19;100.00
68986;BME280;56035;37.534;-122.308;2023-04-07T07:01:34;101523.06;;;10.18;100.00
68986;BME280;56035;37.534;-122.308;2023-04-07T07:04:01;101524.34;;;10.15;100.00
68986;BME280;56035;37.534;-122.308;2023-04-07T07:06:27;101536.03;;;10.11;100.00
68986;BME280;56035;37.534;-122.308;2023-04-07T07:08:53;101544.28;;;10.11;100.00
68986;BME280;56035;37.534;-122.308;2023-04-07T07:11:20;101545.56;;;10.08;100.00
68986;BME280;56035;37.534;-122.308;2023-04-07T07:13:46;101553.59;;;10.09;100.00
68986;BME280;56035;37.534;-122.308;2023-04-07T07:16:12;101551.47;;;10.12;100.00
68986;BME280;56035;37.534;-122.308;2023-04-07T07:18:38;101552.31;;;10.12;100.00
68986;BME280;56035;37.534;-122.308;2023-04-07T07:21:05;101559.50;;;10.13;100.00
68986;BME280;56035;37.534;-122.308;2023-04-07T07:23:31;101554.88;;;10.14;100.00
68986;BME280;56035;37.534;-122.308;2023-04-07T07:25:58;101552.13;;;10.14;100.00
68986;BME280;56035;37.534;-122.308;2023-04-07T07:28:25;101550.41;;;10.13;100.00
68986;BME280;56035;37.534;-122.308;2023-04-07T07:30:51;101542.16;;;10.13;100.00
68986;BME280;56035;37.534;-122.308;2023-04-07T07:33:17;101549.38;;;10.14;100.00
68986;BME280;56035;37.534;-122.308;2023-04-07T07:35:43;101533.44;;;10.16;100.00
68986;BME280;56035;37.534;-122.308;2023-04-07T07:38:10;101543.38;;;10.17;100.00
68986;BME280;56035;37.534;-122.308;2023-04-07T07:40:36;101541.72;;;10.16;100.00
68986;BME280;56035;37.534;-122.308;2023-04-07T07:43:02;101543.63;;;10.15;100.00
68986;BME280;56035;37.534;-122.308;2023-04-07T07:45:28;101536.03;;;10.11;100.00
68986;BME280;56035;37.534;-122.308;2023-04-07T07:47:55;101533.03;;;10.12;100.00
68986;BME280;56035;37.534;-122.308;2023-04-07T07:50:21;101538.97;;;10.16;100.00
68986;BME280;56035;37.534;-122.308;2023-04-07T07:52:47;101532.84;;;10.14;100.00
68986;BME280;56035;37.534;-122.308;2023-04-07T07:55:13;101539.59;;;10.18;100.00
68986;BME280;56035;37.534;-122.308;2023-04-07T07:57:40;101533.00;;;10.19;100.00
68986;BME280;56035;37.534;-122.308;2023-04-07T08:00:06;101536.41;;;10.21;100.00
68986;BME280;56035;37.534;-122.308;2023-04-07T08:02:33;101531.94;;;10.20;100.00
68986;BME280;56035;37.534;-122.308;2023-04-07T08:05:01;101527.91;;;10.22;100.00
68986;BME280;56035;37.534;-122.308;2023-04-07T08:07:27;101523.22;;;10.23;100.00
68986;BME280;56035;37.534;-122.308;2023-04-07T08:09:53;101520.72;;;10.28;100.00
68986;BME280;56035;37.534;-122.308;2023-04-07T08:12:20;101518.38;;;10.25;100.00
68986;BME280;56035;37.534;-122.308;2023-04-07T08:14:46;101524.53;;;10.27;100.00
68986;BME280;56035;37.534;-122.308;2023-04-07T08:17:12;101522.81;;;10.26;100.00
68986;BME280;56035;37.534;-122.308;2023-04-07T08:19:38;101528.34;;;10.26;100.00
68986;BME280;56035;37.534;-122.308;2023-04-07T08:22:04;101533.84;;;10.26;100.00
68986;BME280;56035;37.534;-122.308;2023-04-07T08:24:31;101535.56;;;10.27;100.00
68986;BME280;56035;37.534;-122.308;2023-04-07T08:26:57;101530.03;;;10.27;100.00
68986;BME280;56035;37.534;-122.308;2023-04-07T08:29:23;101526.22;;;10.28;100.00
68986;BME280;56035;37.534;-122.308;2023-04-07T08:31:49;101516.03;;;10.28;100.00
68986;BME280;56035;37.534;-122.308;2023-04-07T08:34:15;101522.38;;;10.29;100.00
68986;BME280;56035;37.534;-122.308;2023-04-07T08:36:43;101523.47;;;10.28;100.00
68986;BME280;56035;37.534;-122.308;2023-04-07T08:39:09;101525.38;;;10.27;100.00
68986;BME280;56035;37.534;-122.308;2023-04-07T08:41:40;101517.94;;;10.28;100.00
68986;BME280;56035;37.534;-122.308;2023-04-07T08:44:07;101516.88;;;10.29;100.00
68986;BME280;56035;37.534;-122.308;2023-04-07T08:46:39;101524.94;;;10.30;100.00
68986;BME280;56035;37.534;-122.308;2023-04-07T08:49:10;101513.91;;;10.30;100.00
68986;BME280;56035;37.534;-122.308;2023-04-07T08:51:44;101509.44;;;10.29;100.00
68986;BME280;56035;37.534;-122.308;2023-04-07T08:54:14;101503.75;;;10.31;100.00
68986;BME280;56035;37.534;-122.308;2023-04-07T08:56:41;101502.06;;;10.30;100.00
68986;BME280;56035;37.534;-122.308;2023-04-07T08:59:13;101496.56;;;10.30;100.00
68986;BME280;56035;37.534;-122.308;2023-04-07T09:01:40;101491.50;;;10.27;100.00
68986;BME280;56035;37.534;-122.308;2023-04-07T09:04:07;101491.66;;;10.25;100.00
68986;BME280;56035;37.534;-122.308;2023-04-07T09:06:33;101489.97;;;10.24;100.00
68986;BME280;56035;37.534;-122.308;2023-04-07T09:09:00;101486.63;;;10.16;100.00
68986;BME280;56035;37.534;-122.308;2023-04-07T09:11:28;101494.91;;;10.16;100.00
68986;BME280;56035;37.534;-122.308;2023-04-07T09:13:55;101498.72;;;10.15;100.00
68986;BME280;56035;37.534;-122.308;2023-04-07T09:16:22;101500.41;;;10.16;100.00
68986;BME280;56035;37.534;-122.308;2023-04-07T09:18:52;101508.28;;;10.12;100.00
68986;BME280;56035;37.534;-122.308;2023-04-07T09:21:18;101503.59;;;10.13;100.00
68986;BME280;56035;37.534;-122.308;2023-04-07T09:23:45;101494.09;;;10.08;100.00
68986;BME280;56035;37.534;-122.308;2023-04-07T09:26:20;101501.13;;;10.04;100.00
68986;BME280;56035;37.534;-122.308;2023-04-07T09:28:53;101496.50;;;9.98;100.00
68986;BME280;56035;37.534;-122.308;2023-04-07T09:31:23;101504.75;;;9.98;100.00
68986;BME280;56035;37.534;-122.308;2023-04-07T09:34:23;101497.13;;;9.94;100.00
68986;BME280;56035;37.534;-122.308;2023-04-07T09:36:50;101493.97;;;9.90;100.00
68986;BME280;56035;37.534;-122.308;2023-04-07T09:39:17;101487.44;;;9.91;100.00
68986;BME280;56035;37.534;-122.308;2023-04-07T09:41:43;101500.13;;;9.92;100.00
68986;BME280;56035;37.534;-122.308;2023-04-07T09:44:10;101502.25;;;9.90;100.00
68986;BME280;56035;37.534;-122.308;2023-04-07T09:46:47;101502.69;;;9.87;100.00
68986;BME280;56035;37.534;-122.308;2023-04-07T09:49:14;101497.44;;;9.79;100.00
68986;BME280;56035;37.534;-122.308;2023-04-07T09:52:01;101497.63;;;9.84;100.00
68986;BME280;56035;37.534;-122.308;2023-04-07T09:57:02;101491.28;;;9.83;100.00
68986;BME280;56035;37.534;-122.308;2023-04-07T09:59:30;101485.59;;;9.78;100.00
68986;BME280;56035;37.534;-122.308;2023-04-07T10:01:57;101492.34;;;9.82;100.00
68986;BME280;56035;37.534;-122.308;2023-04-07T10:04:23;101492.09;;;9.84;100.00
68986;BME280;56035;37.534;-122.308;2023-04-07T10:06:52;101483.00;;;9.83;100.00
68986;BME280;56035;37.534;-122.308;2023-04-07T10:09:25;101480.25;;;9.83;100.00
68986;BME280;56035;37.534;-122.308;2023-04-07T10:11:53;101491.28;;;9.83;100.00
68986;BME280;56035;37.534;-122.308;2023-04-07T10:14:27;101489.16;;;9.85;100.00
68986;BME280;56035;37.534;-122.308;2023-04-07T10:16:53;101488.34;;;9.78;100.00
68986;BME280;56035;37.534;-122.308;2023-04-07T10:19:20;101485.38;;;9.80;100.00
68986;BME280;56035;37.534;-122.308;2023-04-07T10:21:49;101492.78;;;9.79;100.00
68986;BME280;56035;37.534;-122.308;2023-04-07T10:24:42;101481.38;;;9.76;100.00
68986;BME280;56035;37.534;-122.308;2023-04-07T10:27:18;101478.81;;;9.74;100.00
68986;BME280;56035;37.534;-122.308;2023-04-07T10:29:48;101478.19;;;9.79;100.00
68986;BME280;56035;37.534;-122.308;2023-04-07T10:32:17;101474.34;;;9.80;100.00
68986;BME280;56035;37.534;-122.308;2023-04-07T10:37:17;101470.59;;;9.68;100.00
68986;BME280;56035;37.534;-122.308;2023-04-07T10:39:46;101477.38;;;9.72;100.00
68986;BME280;56035;37.534;-122.308;2023-04-07T10:45:07;101484.34;;;9.68;100.00
68986;BME280;56035;37.534;-122.308;2023-04-07T10:48:07;101477.16;;;9.67;100.00
68986;BME280;56035;37.534;-122.308;2023-04-07T10:50:22;101469.75;;;9.67;100.00
68986;BME280;56035;37.534;-122.308;2023-04-07T10:53:03;101474.81;;;9.70;100.00
68986;BME280;56035;37.534;-122.308;2023-04-07T10:55:40;101477.97;;;9.74;100.00
68986;BME280;56035;37.534;-122.308;2023-04-07T10:58:24;101476.06;;;9.74;100.00
68986;BME280;56035;37.534;-122.308;2023-04-07T11:03:27;101464.03;;;9.75;100.00
68986;BME280;56035;37.534;-122.308;2023-04-07T11:06:10;101465.06;;;9.74;100.00
68986;BME280;56035;37.534;-122.308;2023-04-07T11:08:43;101468.88;;;9.73;100.00
68986;BME280;56035;37.534;-122.308;2023-04-07T11:11:39;101468.72;;;9.68;100.00
68986;BME280;56035;37.534;-122.308;2023-04-07T11:14:05;101474.66;;;9.65;100.00
68986;BME280;56035;37.534;-122.308;2023-04-07T11:16:41;101479.13;;;9.59;100.00
68986;BME280;56035;37.534;-122.308;2023-04-07T11:19:08;101473.63;;;9.59;100.00
68986;BME280;56035;37.534;-122.308;2023-04-07T11:21:34;101475.53;;;9.59;100.00
68986;BME280;56035;37.534;-122.308;2023-04-07T11:24:01;101469.63;;;9.55;100.00
68986;BME280;56035;37.534;-122.308;2023-04-07T11:26:27;101464.13;;;9.55;100.00
68986;BME280;56035;37.534;-122.308;2023-04-07T11:28:55;101473.84;;;9.51;100.00
68986;BME280;56035;37.534;-122.308;2023-04-07T11:31:28;101460.56;;;9.42;100.00
68986;BME280;56035;37.534;-122.308;2023-04-07T11:33:58;101461.44;;;9.35;100.00
68986;BME280;56035;37.534;-122.308;2023-04-07T11:36:31;101463.94;;;9.44;100.00
68986;BME280;56035;37.534;-122.308;2023-04-07T11:38:59;101450.66;;;9.34;100.00
68986;BME280;56035;37.534;-122.308;2023-04-07T11:41:27;101436.28;;;9.32;100.00
68986;BME280;56035;37.534;-122.308;2023-04-07T11:44:07;101442.84;;;9.31;100.00
68986;BME280;56035;37.534;-122.308;2023-04-07T11:46:34;101448.75;;;9.28;100.00
68986;BME280;56035;37.534;-122.308;2023-04-07T11:49:12;101449.84;;;9.27;100.00
68986;BME280;56035;37.534;-122.308;2023-04-07T11:51:39;101442.44;;;9.27;100.00
68986;BME280;56035;37.534;-122.308;2023-04-07T11:54:06;101439.03;;;9.25;100.00
68986;BME280;56035;37.534;-122.308;2023-04-07T11:56:43;101444.09;;;9.28;100.00
68986;BME280;56035;37.534;-122.308;2023-04-07T11:59:18;101440.34;;;9.23;100.00
68986;BME280;56035;37.534;-122.308;2023-04-07T12:01:45;101442.44;;;9.21;100.00
68986;BME280;56035;37.534;-122.308;2023-04-07T12:04:12;101454.50;;;9.26;100.00
68986;BME280;56035;37.534;-122.308;2023-04-07T12:06:40;101451.09;;;9.24;100.00
68986;BME280;56035;37.534;-122.308;2023-04-07T12:09:09;101449.00;;;9.26;100.00
68986;BME280;56035;37.534;-122.308;2023-04-07T12:11:50;101453.22;;;9.29;100.00
68986;BME280;56035;37.534;-122.308;2023-04-07T12:14:17;101455.53;;;9.32;100.00
68986;BME280;56035;37.534;-122.308;2023-04-07T12:16:44;101445.38;;;9.32;100.00
68986;BME280;56035;37.534;-122.308;2023-04-07T12:19:10;101439.66;;;9.34;100.00
68986;BME280;56035;37.534;-122.308;2023-04-07T12:21:36;101443.25;;;9.28;100.00
68986;BME280;56035;37.534;-122.308;2023-04-07T12:24:02;101437.75;;;9.28;100.00
68986;BME280;56035;37.534;-122.308;2023-04-07T12:26:29;101428.47;;;9.29;100.00
68986;BME280;56035;37.534;-122.308;2023-04-07T12:28:55;101429.09;;;9.31;100.00
68986;BME280;56035;37.534;-122.308;2023-04-07T12:31:23;101433.75;;;9.30;100.00
68986;BME280;56035;37.534;-122.308;2023-04-07T12:33:50;101434.19;;;9.21;100.00
68986;BME280;56035;37.534;-122.308;2023-04-07T12:36:16;101423.44;;;9.19;100.00
68986;BME280;56035;37.534;-122.308;2023-04-07T12:38:42;101437.38;;;9.18;100.00
68986;BME280;56035;37.534;-122.308;2023-04-07T12:41:08;101432.28;;;9.21;100.00
68986;BME280;56035;37.534;-122.308;2023-04-07T12:43:34;101431.03;;;9.24;100.00
68986;BME280;56035;37.534;-122.308;2023-04-07T12:46:01;101435.28;;;9.20;100.00
68986;BME280;56035;37.534;-122.308;2023-04-07T12:48:27;101436.53;;;9.17;100.00
68986;BME280;56035;37.534;-122.308;2023-04-07T12:50:53;101429.13;;;9.18;100.00
68986;BME280;56035;37.534;-122.308;2023-04-07T12:53:20;101431.88;;;9.18;100.00
68986;BME280;56035;37.534;-122.308;2023-04-07T12:55:46;101426.63;;;9.16;100.00
68986;BME280;56035;37.534;-122.308;2023-04-07T12:58:13;101420.28;;;9.16;100.00
68986;BME280;56035;37.534;-122.308;2023-04-07T13:00:39;101414.97;;;9.14;100.00
68986;BME280;56035;37.534;-122.308;2023-04-07T13:03:06;101417.97;;;9.12;100.00
68986;BME280;56035;37.534;-122.308;2023-04-07T13:05:32;101424.06;;;9.14;100.00
68986;BME280;56035;37.534;-122.308;2023-04-07T13:07:59;101418.81;;;9.13;100.00
68986;BME280;56035;37.534;-122.308;2023-04-07T13:10:25;101426.63;;;9.16;100.00
68986;BME280;56035;37.534;-122.308;2023-04-07T13:12:51;101417.94;;;9.19;100.00
68986;BME280;56035;37.534;-122.308;2023-04-07T13:15:18;101418.78;;;9.20;100.00
68986;BME280;56035;37.534;-122.308;2023-04-07T13:17:44;101423.84;;;9.23;100.00
68986;BME280;56035;37.534;-122.308;2023-04-07T13:20:11;101431.25;;;9.22;100.00
68986;BME280;56035;37.534;-122.308;2023-04-07T13:22:37;101428.91;;;9.26;100.00
68986;BME280;56035;37.534;-122.308;2023-04-07T13:25:04;101424.84;;;9.28;100.00
68986;BME280;56035;37.534;-122.308;2023-04-07T13:27:30;101428.69;;;9.27;100.00
68986;BME280;56035;37.534;-122.308;2023-04-07T13:29:56;101424.84;;;9.28;100.00
68986;BME280;56035;37.534;-122.308;2023-04-07T13:32:22;101423.81;;;9.29;100.00
68986;BME280;56035;37.534;-122.308;2023-04-07T13:34:49;101417.50;;;9.22;100.00
68986;BME280;56035;37.534;-122.308;2023-04-07T13:37:15;101424.84;;;9.28;100.00